createdAt,value
2022-07-29T00:03:51.402Z,50.43
2022-07-29T00:08:51.357Z,50.32
2022-07-29T00:13:51.313Z,50.53
2022-07-29T00:18:51.399Z,50.57
2022-07-29T00:23:51.843Z,50.63
2022-07-29T00:28:51.412Z,50.77
2022-07-29T00:33:51.355Z,50.78
2022-07-29T00:38:51.362Z,50.95
2022-07-29T00:43:51.343Z,51.31
2022-07-29T00:48:51.389Z,51.45
2022-07-29T00:53:51.504Z,51.54
2022-07-29T00:58:51.435Z,51.58
2022-07-29T01:03:51.405Z,51.68
2022-07-29T01:08:51.407Z,51.67
2022-07-29T01:13:51.443Z,51.56
2022-07-29T01:18:51.354Z,51.63
2022-07-29T01:23:51.419Z,51.76
2022-07-29T01:28:51.425Z,51.82
2022-07-29T01:33:51.381Z,51.91
2022-07-29T01:38:51.357Z,52.29
2022-07-29T01:43:51.451Z,52.49
2022-07-29T01:48:51.528Z,52.17
2022-07-29T01:53:51.331Z,52.11
2022-07-29T01:58:51.479Z,52.34
2022-07-29T02:03:53.424Z,52.57
2022-07-29T02:08:55.645Z,52.94
2022-07-29T02:13:55.458Z,53.19
2022-07-29T02:18:55.414Z,53.19
2022-07-29T02:23:55.411Z,53.52
2022-07-29T02:28:55.477Z,54.11
2022-07-29T02:33:55.474Z,54.13
2022-07-29T02:38:57.314Z,54.10
2022-07-29T02:43:57.402Z,54.18
2022-07-29T02:48:57.620Z,54.26
2022-07-29T02:53:57.484Z,54.66
2022-07-29T02:58:57.545Z,54.59
2022-07-29T03:03:57.639Z,54.62
2022-07-29T03:08:57.825Z,54.60
2022-07-29T03:13:57.512Z,54.75
2022-07-29T03:18:57.496Z,54.71
2022-07-29T03:23:57.795Z,54.77
2022-07-29T03:28:57.560Z,55.06
2022-07-29T03:34:00.542Z,55.02
2022-07-29T03:39:00.573Z,55.33
2022-07-29T03:44:00.503Z,55.46
2022-07-29T03:49:00.588Z,55.92
2022-07-29T03:54:00.512Z,55.97
2022-07-29T03:59:00.667Z,56.01
2022-07-29T04:04:00.605Z,56.02
2022-07-29T04:09:00.517Z,56.21
2022-07-29T04:14:00.607Z,56.31
2022-07-29T04:19:00.523Z,56.28
2022-07-29T04:24:00.509Z,56.22
2022-07-29T04:29:00.546Z,56.33
2022-07-29T04:34:00.552Z,56.35
2022-07-29T04:39:01.686Z,56.34
2022-07-29T04:44:03.530Z,56.43
2022-07-29T04:49:03.714Z,56.54
2022-07-29T04:54:03.578Z,56.73
2022-07-29T04:59:03.561Z,56.74
2022-07-29T05:04:03.643Z,56.78
2022-07-29T05:09:03.564Z,56.97
2022-07-29T05:14:03.577Z,56.85
2022-07-29T05:19:03.625Z,56.69
2022-07-29T05:24:03.558Z,56.33
2022-07-29T05:29:03.592Z,56.22
2022-07-29T05:34:03.717Z,55.76
2022-07-29T05:39:03.853Z,55.55
2022-07-29T05:44:03.603Z,54.99
2022-07-29T05:49:03.761Z,54.40
2022-07-29T05:54:04.225Z,53.83
2022-07-29T05:59:04.627Z,52.93
2022-07-29T06:04:07.277Z,52.56
2022-07-29T06:09:11.530Z,52.07
2022-07-29T06:14:10.667Z,51.18
2022-07-29T06:19:10.705Z,50.83
2022-07-29T06:24:10.683Z,50.24
2022-07-29T06:29:11.300Z,48.51
2022-07-29T06:34:11.711Z,47.52
2022-07-29T06:39:12.266Z,48.04
2022-07-29T06:44:12.900Z,48.76
2022-07-29T06:49:14.517Z,49.18
2022-07-29T06:54:15.057Z,49.49
2022-07-29T06:59:16.095Z,49.89
2022-07-29T07:04:16.041Z,50.43
2022-07-29T07:09:16.650Z,50.89
2022-07-29T07:14:17.094Z,51.16
2022-07-29T07:19:19.633Z,51.40
2022-07-29T07:24:19.780Z,52.49
2022-07-29T07:29:19.703Z,53.26
2022-07-29T07:34:19.717Z,53.37
2022-07-29T07:39:21.729Z,53.74
2022-07-29T07:44:22.304Z,55.34
2022-07-29T07:49:22.769Z,56.86
2022-07-29T07:54:22.779Z,58.58
2022-07-29T07:59:22.681Z,58.72
2022-07-29T08:04:27.533Z,58.92
2022-07-29T08:09:30.189Z,58.96
2022-07-29T08:14:26.685Z,59.08
2022-07-29T08:19:26.686Z,59.83
2022-07-29T08:24:46.810Z,62.33
2022-07-29T08:29:46.751Z,61.38
2022-07-29T08:34:46.868Z,59.40
2022-07-29T08:39:46.738Z,58.61
2022-07-29T08:44:46.761Z,58.84
2022-07-29T08:49:48.688Z,59.03
2022-07-29T08:54:48.875Z,59.15
2022-07-29T08:59:48.807Z,58.92
2022-07-29T09:04:48.831Z,58.75
2022-07-29T09:09:48.834Z,58.53
2022-07-29T09:14:48.819Z,58.90
2022-07-29T09:19:48.778Z,58.98
2022-07-29T09:24:48.746Z,58.85
2022-07-29T09:29:49.154Z,58.85
2022-07-29T09:34:48.753Z,58.91
2022-07-29T09:39:48.809Z,58.93
2022-07-29T09:44:49.355Z,59.00
2022-07-29T09:49:49.749Z,59.03
2022-07-29T09:54:50.779Z,58.86
2022-07-29T09:59:50.851Z,58.77
2022-07-29T10:04:50.819Z,58.72
2022-07-29T10:09:50.884Z,58.93
2022-07-29T10:14:50.778Z,59.58
2022-07-29T10:19:50.931Z,59.68
2022-07-29T10:24:51.160Z,57.83
2022-07-29T10:29:50.911Z,57.48
2022-07-29T10:34:52.869Z,57.39
2022-07-29T10:39:52.944Z,57.02
2022-07-29T10:44:52.906Z,56.82
2022-07-29T10:49:53.928Z,56.08
2022-07-29T10:54:57.839Z,55.56
2022-07-29T10:59:58.164Z,55.35
2022-07-29T11:04:57.827Z,54.83
2022-07-29T11:09:57.876Z,54.28
2022-07-29T11:14:59.650Z,53.33
2022-07-29T11:19:59.882Z,50.96
2022-07-29T11:24:59.883Z,48.75
2022-07-29T11:30:01.988Z,47.31
2022-07-29T11:35:02.940Z,47.68
2022-07-29T11:40:05.081Z,45.55
2022-07-29T11:45:41.107Z,44.55
2022-07-29T11:50:10.303Z,44.14
2022-07-29T11:55:10.345Z,44.17
2022-07-29T12:00:12.539Z,43.93
2022-07-29T12:05:14.504Z,43.82
2022-07-29T12:10:19.965Z,44.00
2022-07-29T12:15:18.240Z,43.56
2022-07-29T12:20:20.453Z,43.83
2022-07-29T12:25:36.215Z,43.69
2022-07-29T12:30:22.901Z,43.73
2022-07-29T12:35:22.919Z,43.90
2022-07-29T12:40:23.542Z,44.29
2022-07-29T12:45:23.906Z,44.04
2022-07-29T12:50:26.553Z,44.17
2022-07-29T12:55:26.958Z,43.95
2022-07-29T13:00:27.088Z,42.91
2022-07-29T13:05:27.059Z,42.19
2022-07-29T13:10:27.089Z,41.35
2022-07-29T13:15:27.005Z,40.94
2022-07-29T13:20:27.990Z,40.85
2022-07-29T13:25:28.135Z,41.59
2022-07-29T13:30:28.037Z,42.53
2022-07-29T13:35:29.846Z,43.29
2022-07-29T13:40:30.885Z,43.72
2022-07-29T13:45:30.990Z,43.73
2022-07-29T13:50:33.998Z,43.82
2022-07-29T13:55:34.055Z,44.14
2022-07-29T14:00:34.082Z,43.75
2022-07-29T14:05:34.010Z,43.16
2022-07-29T14:10:34.080Z,42.45
2022-07-29T14:15:34.166Z,42.46
2022-07-29T14:20:36.121Z,43.49
2022-07-29T14:25:36.506Z,44.32
2022-07-29T14:30:38.066Z,44.59
2022-07-29T14:35:38.156Z,45.01
2022-07-29T14:40:38.498Z,45.29
2022-07-29T14:45:38.105Z,45.54
2022-07-29T14:50:38.031Z,46.01
2022-07-29T14:55:38.311Z,46.51
2022-07-29T15:00:38.273Z,46.61
2022-07-29T15:05:38.124Z,46.86
2022-07-29T15:10:38.293Z,46.98
2022-07-29T15:15:38.031Z,47.33
2022-07-29T15:20:38.023Z,47.96
2022-07-29T15:25:38.230Z,48.08
2022-07-29T15:30:40.413Z,48.08
2022-07-29T15:35:40.920Z,48.07
2022-07-29T15:40:41.708Z,48.40
2022-07-29T15:45:42.162Z,48.42
2022-07-29T15:50:42.156Z,48.76
2022-07-29T15:55:42.177Z,48.83
2022-07-29T16:00:44.251Z,49.12
2022-07-29T16:05:44.081Z,49.27
2022-07-29T16:10:44.146Z,49.18
2022-07-29T16:15:44.144Z,49.25
2022-07-29T16:20:44.085Z,49.08
2022-07-29T16:25:59.237Z,48.86
2022-07-29T16:30:46.201Z,48.80
2022-07-29T16:35:46.135Z,48.63
2022-07-29T16:40:46.234Z,48.41
2022-07-29T16:45:46.786Z,48.19
2022-07-29T16:50:47.165Z,48.44
2022-07-29T16:55:47.291Z,48.63
2022-07-29T17:00:47.264Z,48.69
2022-07-29T17:05:52.361Z,48.79
2022-07-29T17:10:49.172Z,48.84
2022-07-29T17:15:49.275Z,48.72
2022-07-29T17:20:49.220Z,48.84
2022-07-29T17:25:49.342Z,48.89
2022-07-29T17:30:49.167Z,48.86
2022-07-29T17:36:08.699Z,49.04
2022-07-29T17:41:09.778Z,48.83
2022-07-29T17:46:10.200Z,48.04
2022-07-29T17:51:10.236Z,47.86
2022-07-29T17:56:10.257Z,47.66
2022-07-29T18:01:10.355Z,47.65
2022-07-29T18:06:10.380Z,47.86
2022-07-29T18:11:14.897Z,48.18
2022-07-29T18:16:13.381Z,48.46
2022-07-29T18:21:13.198Z,48.80
2022-07-29T18:26:13.309Z,49.02
2022-07-29T18:31:13.329Z,49.57
2022-07-29T18:36:13.298Z,49.60
2022-07-29T18:41:13.881Z,49.85
2022-07-29T18:46:14.363Z,50.17
2022-07-29T18:51:14.230Z,50.40
2022-07-29T18:56:14.253Z,50.82
2022-07-29T19:01:16.702Z,51.24
2022-07-29T19:06:16.306Z,51.47
2022-07-29T19:11:16.260Z,51.94
2022-07-29T19:16:16.438Z,52.22
2022-07-29T19:21:16.288Z,52.69
2022-07-29T19:26:20.514Z,53.22
2022-07-29T19:31:19.376Z,53.82
2022-07-29T19:36:19.264Z,54.77
2022-07-29T19:41:22.292Z,54.95
2022-07-29T19:46:22.354Z,55.20
2022-07-29T19:51:22.432Z,55.43
2022-07-29T19:56:24.188Z,55.79
2022-07-29T20:01:24.645Z,56.00
2022-07-29T20:06:24.283Z,56.51
2022-07-29T20:11:24.359Z,56.97
2022-07-29T20:16:25.447Z,57.57
2022-07-29T20:21:26.315Z,58.36
2022-07-29T20:26:26.376Z,58.90
2022-07-29T20:31:27.239Z,59.48
2022-07-29T20:36:27.595Z,59.45
2022-07-29T20:41:28.627Z,59.75
2022-07-29T20:46:28.421Z,59.85
2022-07-29T20:51:28.392Z,60.11
2022-07-29T20:56:28.323Z,60.55
2022-07-29T21:01:28.399Z,60.92
2022-07-29T21:06:28.429Z,61.16
2022-07-29T21:11:43.445Z,61.39
2022-07-29T21:16:32.300Z,61.57
2022-07-29T21:21:32.503Z,61.81
2022-07-29T21:26:32.464Z,61.85
2022-07-29T21:31:32.365Z,61.91
2022-07-29T21:36:48.957Z,61.96
2022-07-29T21:41:34.399Z,62.15
2022-07-29T21:46:36.059Z,62.11
2022-07-29T21:51:36.395Z,62.05
2022-07-29T21:56:36.414Z,62.03
2022-07-29T22:01:39.200Z,61.97
2022-07-29T22:06:38.448Z,62.07
2022-07-29T22:11:38.712Z,62.51
2022-07-29T22:16:38.460Z,62.58
2022-07-29T22:21:38.577Z,62.63
2022-07-29T22:26:38.430Z,62.91
2022-07-29T22:31:38.379Z,63.01
2022-07-29T22:36:38.449Z,62.81
2022-07-29T22:41:38.394Z,62.73
2022-07-29T22:46:38.456Z,62.79
2022-07-29T22:51:38.484Z,62.78
2022-07-29T22:56:38.497Z,63.01
2022-07-29T23:01:38.488Z,63.47
2022-07-29T23:06:38.392Z,64.22
2022-07-29T23:11:38.423Z,64.57
2022-07-29T23:16:38.571Z,65.10
2022-07-29T23:21:38.432Z,65.83
2022-07-29T23:26:38.410Z,66.13
2022-07-29T23:31:41.697Z,67.32
2022-07-29T23:36:41.726Z,68.11
2022-07-29T23:41:41.585Z,67.98
2022-07-29T23:46:41.624Z,68.14
2022-07-29T23:51:41.465Z,68.41
2022-07-29T23:56:41.497Z,68.61
